createdAt,value
2022-11-22T00:00:58.953Z,20.40
2022-11-22T00:01:58.993Z,20.10
2022-11-22T00:02:58.921Z,20.00
2022-11-22T00:03:58.955Z,17.80
2022-11-22T00:04:58.924Z,18.40
2022-11-22T00:05:58.965Z,19.70
2022-11-22T00:06:58.896Z,20.30
2022-11-22T00:07:58.935Z,20.50
2022-11-22T00:08:58.858Z,20.40
2022-11-22T00:09:58.862Z,20.60
2022-11-22T00:10:58.856Z,18.90
2022-11-22T00:11:58.846Z,20.20
2022-11-22T00:12:58.835Z,19.50
2022-11-22T00:13:58.903Z,19.10
2022-11-22T00:14:58.793Z,20.20
2022-11-22T00:15:58.802Z,21.20
2022-11-22T00:16:58.824Z,19.40
2022-11-22T00:17:58.762Z,19.30
2022-11-22T00:18:58.756Z,19.20
2022-11-22T00:19:58.743Z,19.20
2022-11-22T00:20:58.737Z,18.90
2022-11-22T00:21:58.784Z,19.20
2022-11-22T00:22:58.705Z,18.20
2022-11-22T00:23:58.855Z,18.70
2022-11-22T00:24:58.711Z,19.50
2022-11-22T00:25:58.678Z,18.90
2022-11-22T00:26:58.679Z,19.60
2022-11-22T00:27:58.711Z,20.30
2022-11-22T00:28:58.677Z,18.60
2022-11-22T00:29:58.659Z,19.40
2022-11-22T00:30:58.648Z,18.30
2022-11-22T00:31:58.616Z,18.10
2022-11-22T00:32:58.640Z,18.70
2022-11-22T00:33:58.621Z,18.70
2022-11-22T00:34:58.590Z,18.40
2022-11-22T00:35:58.586Z,18.10
2022-11-22T00:36:58.579Z,18.90
2022-11-22T00:37:58.563Z,20.50
2022-11-22T00:38:58.574Z,21.10
2022-11-22T00:39:58.510Z,21.10
2022-11-22T00:40:58.498Z,20.60
2022-11-22T00:41:58.521Z,20.40
2022-11-22T00:42:58.486Z,19.40
2022-11-22T00:43:58.475Z,19.60
2022-11-22T00:44:58.511Z,19.70
2022-11-22T00:45:58.487Z,19.60
2022-11-22T00:46:58.461Z,18.00
2022-11-22T00:47:58.438Z,19.50
2022-11-22T00:48:58.441Z,18.40
2022-11-22T00:49:58.391Z,18.90
2022-11-22T00:50:58.432Z,19.80
2022-11-22T00:51:58.398Z,19.40
2022-11-22T00:52:58.359Z,19.00
2022-11-22T00:53:58.349Z,19.20
2022-11-22T00:54:58.393Z,19.90
2022-11-22T00:55:58.329Z,19.00
2022-11-22T00:56:58.369Z,19.10
2022-11-22T00:57:58.323Z,20.90
2022-11-22T00:58:58.323Z,18.90
2022-11-22T00:59:58.299Z,20.20
2022-11-22T01:00:58.291Z,19.70
2022-11-22T01:01:58.275Z,20.40
2022-11-22T01:02:58.320Z,20.00
2022-11-22T01:03:58.264Z,20.60
2022-11-22T01:04:58.222Z,21.40
2022-11-22T01:05:58.220Z,21.60
2022-11-22T01:06:58.224Z,19.00
2022-11-22T01:07:58.244Z,20.70
2022-11-22T01:08:58.203Z,20.90
2022-11-22T01:09:58.192Z,20.70
2022-11-22T01:10:58.187Z,22.00
2022-11-22T01:11:58.172Z,22.20
2022-11-22T01:12:58.164Z,21.00
2022-11-22T01:13:58.136Z,20.30
2022-11-22T01:14:58.121Z,19.80
2022-11-22T01:15:58.113Z,19.90
2022-11-22T01:16:58.105Z,20.60
2022-11-22T01:17:58.135Z,19.80
2022-11-22T01:18:58.217Z,21.10
2022-11-22T01:19:58.066Z,20.30
2022-11-22T01:20:58.033Z,19.70
2022-11-22T01:21:58.032Z,19.60
2022-11-22T01:22:58.056Z,20.90
2022-11-22T01:23:58.057Z,20.70
2022-11-22T01:24:57.996Z,19.50
2022-11-22T01:25:58.013Z,20.60
2022-11-22T01:26:57.996Z,20.10
2022-11-22T01:27:57.966Z,19.30
2022-11-22T01:28:57.977Z,20.60
2022-11-22T01:29:57.977Z,20.40
2022-11-22T01:30:57.967Z,18.40
2022-11-22T01:31:57.943Z,21.60
2022-11-22T01:32:57.914Z,21.50
2022-11-22T01:33:57.955Z,19.10
2022-11-22T01:34:57.885Z,19.40
2022-11-22T01:35:57.897Z,19.00
2022-11-22T01:36:57.878Z,20.00
2022-11-22T01:37:57.869Z,20.30
2022-11-22T01:38:57.935Z,19.70
2022-11-22T01:39:57.847Z,19.60
2022-11-22T01:40:57.832Z,21.00
2022-11-22T01:41:57.840Z,19.70
2022-11-22T01:42:57.819Z,18.10
2022-11-22T01:43:57.798Z,17.80
2022-11-22T01:44:57.827Z,18.90
2022-11-22T01:45:57.771Z,19.40
2022-11-22T01:46:57.770Z,19.20
2022-11-22T01:47:57.751Z,17.40
2022-11-22T01:48:57.780Z,19.00
2022-11-22T01:49:57.748Z,18.50
2022-11-22T01:50:57.731Z,17.80
2022-11-22T01:51:57.713Z,18.40
2022-11-22T01:52:57.727Z,17.80
2022-11-22T01:53:57.727Z,17.40
2022-11-22T01:54:57.732Z,18.00
2022-11-22T01:55:57.730Z,17.40
2022-11-22T01:56:57.661Z,18.10
2022-11-22T01:57:57.644Z,16.80
2022-11-22T01:58:57.674Z,18.20
2022-11-22T01:59:57.608Z,17.30
2022-11-22T02:00:57.631Z,16.70
2022-11-22T02:01:57.651Z,17.90
2022-11-22T02:02:57.591Z,16.90
2022-11-22T02:03:57.599Z,18.30
2022-11-22T02:04:57.559Z,17.30
2022-11-22T02:05:57.556Z,17.30
2022-11-22T02:06:57.530Z,17.20
2022-11-22T02:07:57.582Z,18.00
2022-11-22T02:08:57.553Z,19.80
2022-11-22T02:09:57.528Z,17.90
2022-11-22T02:10:57.481Z,17.60
2022-11-22T02:11:57.484Z,17.20
2022-11-22T02:12:57.461Z,16.90
2022-11-22T02:13:57.490Z,16.50
2022-11-22T02:14:57.458Z,18.00
2022-11-22T02:15:57.449Z,18.20
2022-11-22T02:16:57.421Z,16.90
2022-11-22T02:17:57.427Z,16.90
2022-11-22T02:18:57.445Z,19.00
2022-11-22T02:19:57.422Z,16.90
2022-11-22T02:20:57.385Z,17.60
2022-11-22T02:21:57.353Z,17.90
2022-11-22T02:22:57.365Z,18.50
2022-11-22T02:23:57.375Z,17.40
2022-11-22T02:24:57.333Z,17.70
2022-11-22T02:25:57.343Z,17.40
2022-11-22T02:26:57.313Z,17.30
2022-11-22T02:27:57.329Z,17.50
2022-11-22T02:28:57.318Z,16.10
2022-11-22T02:29:57.272Z,15.40
2022-11-22T02:30:57.307Z,15.40
2022-11-22T02:31:57.243Z,16.30
2022-11-22T02:32:57.233Z,15.20
2022-11-22T02:34:01.474Z,16.60
2022-11-22T02:34:57.227Z,18.60
2022-11-22T02:35:57.206Z,17.90
2022-11-22T02:36:57.223Z,17.30
2022-11-22T02:37:57.227Z,16.90
2022-11-22T02:38:57.178Z,16.50
2022-11-22T02:39:57.174Z,16.10
2022-11-22T02:40:57.166Z,16.80
2022-11-22T02:41:57.195Z,17.50
2022-11-22T02:42:57.168Z,16.20
2022-11-22T02:43:57.117Z,16.50
2022-11-22T02:44:57.105Z,17.00
2022-11-22T02:45:57.137Z,16.30
2022-11-22T02:46:57.089Z,14.80
2022-11-22T02:47:57.113Z,14.20
2022-11-22T02:48:57.066Z,14.70
2022-11-22T02:49:57.047Z,16.80
2022-11-22T02:50:57.046Z,15.00
2022-11-22T02:51:57.040Z,15.00
2022-11-22T02:52:57.016Z,15.30
2022-11-22T02:53:57.040Z,15.60
2022-11-22T02:54:57.030Z,16.00
2022-11-22T02:55:57.013Z,17.30
2022-11-22T02:56:56.985Z,16.70
2022-11-22T02:57:56.980Z,16.80
2022-11-22T02:58:56.947Z,16.70
2022-11-22T02:59:56.951Z,17.90
2022-11-22T03:00:57.056Z,16.90
2022-11-22T03:02:02.805Z,17.50
2022-11-22T03:02:57.897Z,16.10
2022-11-22T03:03:56.891Z,15.00
2022-11-22T03:04:56.959Z,16.30
2022-11-22T03:05:56.899Z,15.40
2022-11-22T03:06:56.890Z,14.00
2022-11-22T03:07:56.850Z,15.50
2022-11-22T03:08:57.011Z,14.60
2022-11-22T03:09:56.847Z,15.70
2022-11-22T03:10:56.894Z,15.20
2022-11-22T03:11:56.874Z,13.90
2022-11-22T03:12:56.826Z,14.20
2022-11-22T03:13:56.779Z,14.00
2022-11-22T03:14:56.770Z,13.60
2022-11-22T03:15:56.774Z,13.90
2022-11-22T03:16:56.765Z,14.00
2022-11-22T03:17:56.814Z,13.30
2022-11-22T03:18:56.736Z,12.90
2022-11-22T03:19:56.720Z,12.60
2022-11-22T03:20:56.748Z,11.60
2022-11-22T03:21:56.691Z,14.20
2022-11-22T03:22:56.681Z,13.60
2022-11-22T03:23:56.701Z,13.30
2022-11-22T03:24:56.662Z,14.00
2022-11-22T03:25:56.692Z,14.50
2022-11-22T03:26:56.661Z,14.90
2022-11-22T03:27:56.635Z,14.00
2022-11-22T03:28:56.626Z,14.30
2022-11-22T03:29:56.615Z,15.00
2022-11-22T03:30:56.617Z,15.60
2022-11-22T03:31:56.632Z,15.40
2022-11-22T03:32:56.594Z,14.30
2022-11-22T03:33:56.562Z,15.00
2022-11-22T03:34:56.557Z,13.90
2022-11-22T03:35:56.544Z,13.30
2022-11-22T03:36:56.543Z,14.00
2022-11-22T03:37:56.563Z,13.50
2022-11-22T03:38:56.523Z,12.20
2022-11-22T03:39:56.494Z,12.70
2022-11-22T03:40:56.506Z,12.80
2022-11-22T03:41:56.483Z,12.30
2022-11-22T03:42:56.454Z,12.10
2022-11-22T03:43:56.484Z,13.50
2022-11-22T03:44:56.436Z,12.70
2022-11-22T03:45:56.459Z,12.70
2022-11-22T03:46:56.447Z,13.00
2022-11-22T03:47:56.408Z,12.90
2022-11-22T03:48:56.394Z,12.30
2022-11-22T03:49:56.450Z,12.50
2022-11-22T03:50:56.599Z,12.70
2022-11-22T03:51:56.368Z,12.10
2022-11-22T03:52:56.360Z,12.10
2022-11-22T03:53:56.359Z,12.50
2022-11-22T03:54:56.346Z,12.40
2022-11-22T03:55:56.329Z,11.70
2022-11-22T03:56:56.344Z,11.00
2022-11-22T03:57:56.329Z,13.20
2022-11-22T03:58:56.290Z,13.00
2022-11-22T03:59:56.292Z,14.00
2022-11-22T04:00:56.310Z,13.10
2022-11-22T04:01:56.379Z,13.40
2022-11-22T04:02:56.271Z,13.10
2022-11-22T04:03:56.247Z,12.90
2022-11-22T04:04:56.208Z,11.80
2022-11-22T04:05:56.197Z,11.50
2022-11-22T04:06:56.230Z,12.20
2022-11-22T04:07:56.199Z,11.30
2022-11-22T04:08:56.279Z,12.30
2022-11-22T04:09:56.162Z,11.90
2022-11-22T04:10:56.170Z,12.20
2022-11-22T04:11:56.141Z,13.00
2022-11-22T04:12:56.150Z,12.00
2022-11-22T04:13:56.127Z,12.30
2022-11-22T04:14:56.120Z,10.70
2022-11-22T04:15:56.090Z,12.00
2022-11-22T04:16:56.078Z,11.00
2022-11-22T04:17:56.081Z,12.00
2022-11-22T04:18:56.062Z,11.40
2022-11-22T04:19:56.060Z,11.50
2022-11-22T04:20:56.033Z,12.00
2022-11-22T04:21:56.047Z,12.20
2022-11-22T04:22:56.042Z,12.10
2022-11-22T04:23:55.990Z,13.10
2022-11-22T04:24:56.012Z,12.80
2022-11-22T04:25:55.991Z,12.00
2022-11-22T04:26:55.960Z,12.40
2022-11-22T04:27:55.983Z,12.20
2022-11-22T04:29:09.380Z,11.80
2022-11-22T04:29:56.955Z,12.00
2022-11-22T04:30:55.931Z,11.20
2022-11-22T04:31:55.905Z,13.60
2022-11-22T04:32:55.927Z,11.90
2022-11-22T04:33:55.887Z,12.50
2022-11-22T04:34:55.905Z,12.60
2022-11-22T04:35:55.883Z,12.90
2022-11-22T04:36:55.848Z,13.80
2022-11-22T04:37:55.822Z,12.90
2022-11-22T04:38:55.823Z,11.80
2022-11-22T04:39:55.803Z,12.20
2022-11-22T04:40:55.865Z,12.00
2022-11-22T04:41:55.795Z,13.50
2022-11-22T04:42:55.786Z,13.10
2022-11-22T04:43:55.777Z,12.50
2022-11-22T04:44:55.773Z,11.80
2022-11-22T04:45:55.779Z,11.60
2022-11-22T04:46:55.723Z,11.60
2022-11-22T04:47:55.727Z,11.60
2022-11-22T04:48:55.704Z,10.90
2022-11-22T04:49:55.712Z,11.80
2022-11-22T04:50:55.725Z,11.90
2022-11-22T04:51:55.684Z,11.80
2022-11-22T04:52:55.679Z,11.80
2022-11-22T04:53:55.646Z,12.60
2022-11-22T04:54:55.635Z,12.80
2022-11-22T04:55:55.659Z,13.40
2022-11-22T04:56:55.639Z,11.90
2022-11-22T04:57:59.563Z,11.50
2022-11-22T04:58:55.616Z,11.60
2022-11-22T04:59:55.601Z,12.40
2022-11-22T05:00:55.616Z,12.80
2022-11-22T05:01:55.606Z,12.60
2022-11-22T05:02:55.546Z,11.60
2022-11-22T05:03:55.548Z,12.80
2022-11-22T05:04:55.506Z,12.10
2022-11-22T05:05:55.543Z,12.00
2022-11-22T05:06:55.510Z,12.20
2022-11-22T05:07:55.507Z,12.40
2022-11-22T05:08:55.601Z,12.40
2022-11-22T05:09:55.491Z,12.30
2022-11-22T05:10:55.452Z,12.40
2022-11-22T05:11:55.470Z,12.50
2022-11-22T05:12:55.480Z,13.10
2022-11-22T05:13:55.418Z,12.20
2022-11-22T05:14:55.421Z,12.60
2022-11-22T05:15:55.420Z,12.20
2022-11-22T05:16:55.394Z,12.30
2022-11-22T05:17:55.383Z,11.50
2022-11-22T05:18:55.432Z,11.90
2022-11-22T05:19:55.340Z,11.30
2022-11-22T05:20:55.348Z,11.40
2022-11-22T05:21:55.373Z,11.50
2022-11-22T05:22:55.339Z,11.40
2022-11-22T05:23:55.322Z,10.90
2022-11-22T05:24:55.301Z,11.30
2022-11-22T05:25:55.283Z,11.00
2022-11-22T05:26:55.260Z,10.90
2022-11-22T05:27:55.306Z,11.30
2022-11-22T05:28:55.283Z,11.10
2022-11-22T05:29:55.229Z,11.40
2022-11-22T05:30:55.222Z,11.00
2022-11-22T05:31:55.254Z,10.90
2022-11-22T05:32:55.217Z,10.70
2022-11-22T05:33:55.212Z,11.60
2022-11-22T05:34:55.216Z,12.10
2022-11-22T05:35:55.162Z,10.90
2022-11-22T05:36:55.182Z,11.60
2022-11-22T05:37:55.152Z,11.70
2022-11-22T05:38:55.176Z,11.00
2022-11-22T05:39:55.142Z,11.50
2022-11-22T05:40:55.157Z,12.00
2022-11-22T05:41:55.123Z,11.50
2022-11-22T05:42:55.103Z,12.00
2022-11-22T05:43:55.092Z,12.40
2022-11-22T05:44:55.054Z,12.70
2022-11-22T05:45:55.071Z,12.70
2022-11-22T05:46:55.074Z,12.10
2022-11-22T05:47:55.074Z,12.00
2022-11-22T05:48:55.023Z,12.10
2022-11-22T05:49:55.015Z,11.60
2022-11-22T05:50:55.007Z,12.70
2022-11-22T05:51:54.985Z,12.00
2022-11-22T05:52:55.037Z,12.30
2022-11-22T05:53:54.956Z,12.00
2022-11-22T05:54:54.964Z,13.30
2022-11-22T05:55:54.950Z,11.70
2022-11-22T05:56:54.938Z,12.70
2022-11-22T05:57:54.926Z,11.80
2022-11-22T05:58:54.926Z,12.10
2022-11-22T05:59:54.920Z,12.10
2022-11-22T06:00:54.893Z,12.10
2022-11-22T06:01:54.924Z,12.00
2022-11-22T06:02:54.892Z,11.80
2022-11-22T06:03:54.891Z,12.00
2022-11-22T06:04:54.826Z,12.40
2022-11-22T06:05:54.871Z,11.30
2022-11-22T06:06:54.814Z,12.10
2022-11-22T06:07:54.846Z,11.00
2022-11-22T06:08:54.912Z,11.40
2022-11-22T06:09:54.851Z,11.80
2022-11-22T06:10:54.770Z,11.40
2022-11-22T06:11:54.798Z,11.30
2022-11-22T06:12:54.745Z,12.70
2022-11-22T06:13:54.760Z,13.00
2022-11-22T06:14:54.722Z,13.40
2022-11-22T06:15:54.722Z,12.00
2022-11-22T06:16:54.756Z,13.20
2022-11-22T06:17:54.722Z,13.10
2022-11-22T06:18:54.673Z,13.10
2022-11-22T06:19:54.672Z,12.00
2022-11-22T06:20:54.651Z,12.20
2022-11-22T06:21:54.658Z,12.10
2022-11-22T06:22:54.683Z,12.80
2022-11-22T06:23:54.651Z,11.90
2022-11-22T06:24:54.600Z,11.90
2022-11-22T06:25:54.611Z,12.10
2022-11-22T06:26:54.600Z,12.80
2022-11-22T06:27:54.619Z,11.70
2022-11-22T06:28:54.573Z,12.70
2022-11-22T06:29:54.570Z,12.70
2022-11-22T06:30:54.539Z,12.80
2022-11-22T06:31:55.946Z,11.90
2022-11-22T06:32:54.545Z,12.00
2022-11-22T06:33:54.535Z,12.10
2022-11-22T06:34:54.513Z,11.40
2022-11-22T06:35:54.471Z,12.80
2022-11-22T06:36:54.548Z,12.70
2022-11-22T06:38:00.401Z,13.10
2022-11-22T06:38:55.455Z,12.70
2022-11-22T06:39:54.432Z,16.50
2022-11-22T06:40:54.446Z,16.90
2022-11-22T06:41:54.456Z,16.10
2022-11-22T06:42:54.443Z,16.50
2022-11-22T06:43:54.408Z,15.50
2022-11-22T06:44:54.396Z,15.90
2022-11-22T06:45:54.399Z,15.90
2022-11-22T06:46:54.378Z,15.10
2022-11-22T06:47:54.355Z,14.30
2022-11-22T06:48:54.394Z,13.80
2022-11-22T06:49:54.337Z,13.10
2022-11-22T06:50:54.322Z,12.80
2022-11-22T06:51:54.308Z,13.20
2022-11-22T06:52:54.294Z,12.60
2022-11-22T06:53:54.354Z,12.50
2022-11-22T06:54:54.342Z,12.90
2022-11-22T06:55:59.808Z,13.40
2022-11-22T06:56:55.257Z,12.30
2022-11-22T06:57:54.250Z,13.90
2022-11-22T06:58:54.297Z,12.70
2022-11-22T06:59:54.205Z,11.60
2022-11-22T07:00:54.277Z,12.40
2022-11-22T07:01:54.246Z,12.60
2022-11-22T07:02:54.197Z,12.60
2022-11-22T07:03:54.205Z,12.60
2022-11-22T07:05:17.690Z,12.80
2022-11-22T07:05:55.136Z,12.60
2022-11-22T07:06:54.136Z,12.60
2022-11-22T07:07:57.786Z,11.80
2022-11-22T07:08:55.370Z,12.90
2022-11-22T07:09:56.571Z,16.10
2022-11-22T07:10:54.100Z,15.40
2022-11-22T07:11:54.106Z,17.20
2022-11-22T07:12:54.071Z,17.80
2022-11-22T07:13:54.069Z,16.90
2022-11-22T07:14:54.086Z,15.60
2022-11-22T07:15:54.091Z,13.40
2022-11-22T07:16:54.046Z,13.80
2022-11-22T07:17:54.005Z,13.00
2022-11-22T07:18:54.012Z,11.60
2022-11-22T07:19:53.999Z,12.00
2022-11-22T07:20:54.040Z,12.70
2022-11-22T07:21:53.993Z,12.90
2022-11-22T07:22:53.954Z,11.70
2022-11-22T07:23:53.941Z,11.30
2022-11-22T07:24:53.950Z,10.20
2022-11-22T07:25:53.975Z,12.30
2022-11-22T07:26:53.953Z,12.40
2022-11-22T07:27:53.902Z,11.40
2022-11-22T07:28:53.925Z,9.20
2022-11-22T07:29:53.883Z,11.30
2022-11-22T07:30:53.879Z,11.40
2022-11-22T07:31:53.940Z,11.50
2022-11-22T07:32:53.883Z,11.10
2022-11-22T07:33:53.830Z,14.60
2022-11-22T07:34:53.832Z,11.70
2022-11-22T07:35:53.800Z,11.00
2022-11-22T07:36:59.077Z,11.10
2022-11-22T07:37:54.832Z,11.80
2022-11-22T07:38:53.784Z,11.80
2022-11-22T07:39:53.762Z,12.60
2022-11-22T07:40:53.754Z,12.30
2022-11-22T07:41:53.768Z,12.70
2022-11-22T07:42:58.295Z,12.10
2022-11-22T07:43:53.733Z,10.80
2022-11-22T07:44:53.715Z,10.60
2022-11-22T07:45:53.692Z,10.20
2022-11-22T07:46:53.714Z,10.10
2022-11-22T07:47:53.692Z,9.30
2022-11-22T07:48:53.686Z,9.10
2022-11-22T07:49:53.654Z,9.00
2022-11-22T07:50:53.657Z,9.10
2022-11-22T07:51:53.663Z,10.00
2022-11-22T07:52:53.603Z,9.80
2022-11-22T07:53:53.619Z,10.40
2022-11-22T07:54:53.593Z,9.10
2022-11-22T07:55:53.580Z,9.50
2022-11-22T07:56:53.576Z,9.60
2022-11-22T07:57:53.624Z,9.40
2022-11-22T07:58:53.558Z,9.90
2022-11-22T07:59:53.572Z,10.00
2022-11-22T08:00:53.560Z,9.40
2022-11-22T08:01:53.623Z,10.70
2022-11-22T08:02:53.549Z,10.10
2022-11-22T08:03:53.573Z,10.10
2022-11-22T08:04:53.539Z,10.60
2022-11-22T08:05:53.456Z,9.80
2022-11-22T08:06:53.481Z,10.50
2022-11-22T08:07:53.581Z,9.80
2022-11-22T08:08:57.255Z,10.30
2022-11-22T08:09:54.458Z,10.20
2022-11-22T08:10:53.450Z,10.20
2022-11-22T08:11:53.396Z,10.20
2022-11-22T08:12:53.419Z,11.10
2022-11-22T08:13:53.399Z,10.60
2022-11-22T08:14:53.450Z,9.90
2022-11-22T08:15:54.709Z,9.10
2022-11-22T08:16:53.350Z,9.40
2022-11-22T08:17:53.326Z,9.90
2022-11-22T08:18:53.317Z,10.60
2022-11-22T08:19:53.352Z,9.60
2022-11-22T08:20:53.367Z,9.30
2022-11-22T08:21:58.341Z,9.80
2022-11-22T08:22:54.287Z,9.30
2022-11-22T08:23:53.274Z,8.90
2022-11-22T08:24:53.267Z,8.40
2022-11-22T08:25:53.284Z,9.30
2022-11-22T08:26:54.308Z,8.40
2022-11-22T08:27:53.213Z,9.10
2022-11-22T08:28:53.189Z,8.60
2022-11-22T08:29:53.210Z,8.70
2022-11-22T08:30:53.224Z,9.60
2022-11-22T08:31:53.216Z,9.90
2022-11-22T08:32:53.155Z,10.00
2022-11-22T08:33:53.151Z,9.40
2022-11-22T08:34:54.160Z,9.00
2022-11-22T08:35:53.124Z,9.50
2022-11-22T08:36:53.134Z,8.90
2022-11-22T08:37:53.141Z,9.20
2022-11-22T08:38:53.104Z,11.20
2022-11-22T08:39:53.071Z,10.90
2022-11-22T08:40:53.071Z,11.10
2022-11-22T08:41:53.051Z,10.40
2022-11-22T08:42:53.096Z,11.30
2022-11-22T08:43:53.057Z,11.50
2022-11-22T08:44:53.035Z,11.00
2022-11-22T08:45:52.992Z,10.90
2022-11-22T08:46:53.006Z,10.00
2022-11-22T08:47:53.031Z,11.20
2022-11-22T08:48:53.012Z,11.40
2022-11-22T08:49:52.978Z,10.60
2022-11-22T08:50:52.956Z,10.10
2022-11-22T08:51:52.955Z,11.30
2022-11-22T08:52:52.923Z,11.30
2022-11-22T08:53:52.957Z,10.60
2022-11-22T08:54:52.914Z,10.00
2022-11-22T08:55:52.918Z,10.20
2022-11-22T08:56:52.907Z,10.60
2022-11-22T08:57:52.907Z,10.40
2022-11-22T08:58:52.899Z,10.70
2022-11-22T08:59:52.847Z,10.40
2022-11-22T09:00:52.874Z,12.00
2022-11-22T09:01:52.907Z,12.50
2022-11-22T09:02:52.813Z,13.00
2022-11-22T09:03:52.859Z,12.30
2022-11-22T09:04:52.784Z,11.90
2022-11-22T09:09:08.375Z,11.40
2022-11-22T09:09:53.734Z,11.00
2022-11-22T09:10:52.721Z,11.40
2022-11-22T09:11:52.726Z,11.30
2022-11-22T09:12:52.698Z,10.30
2022-11-22T09:13:52.709Z,10.60
2022-11-22T09:14:52.687Z,11.50
2022-11-22T09:15:52.646Z,10.90
2022-11-22T09:16:52.652Z,10.80
2022-11-22T09:17:52.648Z,11.20
2022-11-22T09:18:52.631Z,11.00
2022-11-22T09:19:52.691Z,11.00
2022-11-22T09:20:52.598Z,11.40
2022-11-22T09:21:52.613Z,12.70
2022-11-22T09:22:52.568Z,12.10
2022-11-22T09:23:52.550Z,12.40
2022-11-22T09:24:52.548Z,12.50
2022-11-22T09:25:52.608Z,13.30
2022-11-22T09:26:52.556Z,13.90
2022-11-22T09:27:52.508Z,13.60
2022-11-22T09:28:52.518Z,12.40
2022-11-22T09:29:52.504Z,11.80
2022-11-22T09:30:52.504Z,12.50
2022-11-22T09:31:53.490Z,13.00
2022-11-22T09:32:52.465Z,11.90
2022-11-22T09:33:52.489Z,11.60
2022-11-22T09:34:52.431Z,12.30
2022-11-22T09:35:52.441Z,13.20
2022-11-22T09:36:52.401Z,11.50
2022-11-22T09:37:52.444Z,11.60
2022-11-22T09:38:52.436Z,12.30
2022-11-22T09:39:52.411Z,11.00
2022-11-22T09:40:52.375Z,12.40
2022-11-22T09:41:52.374Z,12.30
2022-11-22T09:42:52.360Z,10.60
2022-11-22T09:43:52.329Z,10.80
2022-11-22T09:44:52.312Z,10.30
2022-11-22T09:45:52.345Z,10.10
2022-11-22T09:46:52.327Z,9.80
2022-11-22T09:47:52.273Z,9.70
2022-11-22T09:48:52.264Z,10.00
2022-11-22T09:49:52.264Z,9.70
2022-11-22T09:50:52.294Z,9.30
2022-11-22T09:51:52.267Z,9.20
2022-11-22T09:52:52.287Z,9.30
2022-11-22T09:53:52.234Z,9.50
2022-11-22T09:54:52.235Z,10.00
2022-11-22T09:55:52.184Z,9.10
2022-11-22T09:56:52.164Z,10.60
2022-11-22T09:57:52.184Z,9.50
2022-11-22T09:58:52.198Z,10.20
2022-11-22T09:59:52.135Z,10.30
2022-11-22T10:00:52.736Z,8.60
2022-11-22T10:01:52.255Z,9.30
2022-11-22T10:03:00.398Z,9.40
2022-11-22T10:03:53.146Z,9.40
2022-11-22T10:04:52.131Z,10.60
2022-11-22T10:05:52.118Z,8.70
2022-11-22T10:06:52.086Z,8.30
2022-11-22T10:07:52.134Z,8.70
2022-11-22T10:08:52.046Z,10.90
2022-11-22T10:09:52.079Z,9.60
2022-11-22T10:10:52.057Z,8.40
2022-11-22T10:11:52.021Z,8.20
2022-11-22T10:12:52.005Z,8.30
2022-11-22T10:13:53.910Z,8.70
2022-11-22T10:14:52.011Z,7.90
2022-11-22T10:15:51.980Z,9.30
2022-11-22T10:16:51.968Z,10.20
2022-11-22T10:17:51.933Z,10.20
2022-11-22T10:18:51.933Z,11.30
2022-11-22T10:19:51.946Z,10.10
2022-11-22T10:20:51.911Z,11.00
2022-11-22T10:21:51.919Z,9.70
2022-11-22T10:22:51.913Z,9.20
2022-11-22T10:23:51.865Z,9.20
2022-11-22T10:24:51.886Z,7.80
2022-11-22T10:25:51.855Z,8.00
2022-11-22T10:26:51.875Z,8.00
2022-11-22T10:27:54.961Z,7.60
2022-11-22T10:28:52.844Z,9.10
2022-11-22T10:29:51.805Z,8.90
2022-11-22T10:30:51.823Z,8.90
2022-11-22T10:31:51.817Z,7.80
2022-11-22T10:32:51.800Z,7.90
2022-11-22T10:33:51.757Z,7.30
2022-11-22T10:34:51.802Z,8.10
2022-11-22T10:35:51.726Z,7.00
2022-11-22T10:36:51.723Z,6.70
2022-11-22T10:37:51.722Z,7.30
2022-11-22T10:38:51.735Z,7.60
2022-11-22T10:39:51.693Z,8.90
2022-11-22T10:40:51.712Z,7.30
2022-11-22T10:41:51.664Z,7.20
2022-11-22T10:42:51.975Z,6.70
2022-11-22T10:43:51.864Z,6.50
2022-11-22T10:44:51.662Z,6.90
2022-11-22T10:45:51.655Z,7.60
2022-11-22T10:46:56.536Z,8.10
2022-11-22T10:47:52.585Z,7.20
2022-11-22T10:48:51.578Z,8.00
2022-11-22T10:49:51.606Z,8.50
2022-11-22T10:50:51.792Z,9.10
2022-11-22T10:51:51.560Z,10.10
2022-11-22T10:52:51.593Z,8.40
2022-11-22T10:53:51.556Z,7.70
2022-11-22T10:54:51.499Z,7.10
2022-11-22T10:55:51.508Z,6.30
2022-11-22T10:56:51.498Z,5.40
2022-11-22T10:57:51.500Z,5.60
2022-11-22T10:58:51.479Z,5.30
2022-11-22T10:59:51.478Z,4.30
2022-11-22T11:00:51.464Z,4.40
2022-11-22T11:01:51.418Z,4.30
2022-11-22T11:02:51.413Z,5.00
2022-11-22T11:03:51.563Z,6.10
2022-11-22T11:04:51.412Z,4.10
2022-11-22T11:07:56.564Z,3.80
2022-11-22T11:09:47.943Z,3.90
2022-11-22T11:10:51.502Z,3.60
2022-11-22T11:11:51.346Z,3.60
2022-11-22T11:12:51.315Z,3.20
2022-11-22T11:13:51.282Z,3.50
2022-11-22T11:14:51.317Z,4.00
2022-11-22T11:15:55.689Z,3.40
2022-11-22T11:16:52.267Z,3.20
2022-11-22T11:17:51.516Z,3.60
2022-11-22T11:18:51.233Z,3.50
2022-11-22T11:19:52.305Z,3.60
2022-11-22T11:20:51.245Z,3.40
2022-11-22T11:21:51.245Z,3.40
2022-11-22T11:23:13.680Z,3.60
2022-11-22T11:23:52.164Z,3.50
2022-11-22T11:24:51.155Z,3.60
2022-11-22T11:25:51.205Z,4.20
2022-11-22T11:26:51.150Z,5.70
2022-11-22T11:27:51.125Z,4.30
2022-11-22T11:28:51.119Z,3.30
2022-11-22T11:29:51.166Z,4.40
2022-11-22T11:30:51.116Z,4.10
2022-11-22T11:31:51.092Z,4.00
2022-11-22T11:32:51.069Z,3.70
2022-11-22T11:33:51.117Z,4.00
2022-11-22T11:34:51.077Z,3.90
2022-11-22T11:35:51.037Z,4.20
2022-11-22T11:36:51.049Z,6.00
2022-11-22T11:37:51.021Z,4.60
2022-11-22T11:38:51.022Z,4.00
2022-11-22T11:39:50.979Z,4.30
2022-11-22T11:40:51.043Z,4.10
2022-11-22T11:41:51.005Z,4.40
2022-11-22T11:42:50.989Z,4.70
2022-11-22T11:43:50.964Z,4.50
2022-11-22T11:44:51.004Z,4.00
2022-11-22T11:45:50.947Z,4.10
2022-11-22T11:46:50.958Z,4.30
2022-11-22T11:47:50.921Z,4.70
2022-11-22T11:48:50.934Z,4.90
2022-11-22T11:49:50.879Z,5.10
2022-11-22T11:50:50.856Z,3.90
2022-11-22T11:51:50.847Z,3.80
2022-11-22T11:52:50.913Z,4.80
2022-11-22T11:53:50.833Z,4.10
2022-11-22T11:54:50.861Z,4.00
2022-11-22T11:55:50.839Z,3.80
2022-11-22T11:56:50.784Z,4.10
2022-11-22T11:57:50.808Z,3.60
2022-11-22T11:58:50.850Z,3.60
2022-11-22T11:59:50.756Z,3.80
2022-11-22T12:00:50.759Z,4.30
2022-11-22T12:01:50.812Z,4.30
2022-11-22T12:02:50.784Z,4.80
2022-11-22T12:03:50.759Z,6.50
2022-11-22T12:04:50.721Z,4.80
2022-11-22T12:05:50.702Z,3.80
2022-11-22T12:06:50.711Z,4.00
2022-11-22T12:07:50.715Z,3.60
2022-11-22T12:08:50.732Z,4.70
2022-11-22T12:09:50.628Z,4.20
2022-11-22T12:10:50.655Z,3.60
2022-11-22T12:11:50.627Z,3.60
2022-11-22T12:12:50.613Z,4.00
2022-11-22T12:14:18.973Z,3.30
2022-11-22T12:15:10.101Z,3.60
2022-11-22T12:15:51.634Z,4.20
2022-11-22T12:16:50.571Z,4.40
2022-11-22T12:17:50.587Z,4.90
2022-11-22T12:18:50.541Z,4.70
2022-11-22T12:19:50.551Z,4.40
2022-11-22T12:20:50.753Z,3.70
2022-11-22T12:21:50.548Z,3.30
2022-11-22T12:22:50.920Z,3.20
2022-11-22T12:23:51.190Z,3.90
2022-11-22T12:25:51.493Z,3.80
2022-11-22T12:26:50.474Z,3.40
2022-11-22T12:27:50.444Z,3.90
2022-11-22T12:28:50.438Z,3.40
2022-11-22T12:29:50.428Z,3.60
2022-11-22T12:30:50.440Z,3.70
2022-11-22T12:31:50.655Z,3.30
2022-11-22T12:32:50.767Z,3.50
2022-11-22T12:33:50.372Z,3.70
2022-11-22T12:34:50.530Z,3.50
2022-11-22T12:35:50.378Z,3.30
2022-11-22T12:36:50.379Z,3.60
2022-11-22T12:37:50.415Z,4.30
2022-11-22T12:38:50.330Z,4.20
2022-11-22T12:39:50.361Z,4.20
2022-11-22T12:40:50.312Z,4.00
2022-11-22T12:41:51.338Z,4.00
2022-11-22T12:42:50.292Z,3.60
2022-11-22T12:43:50.502Z,3.70
2022-11-22T12:44:50.284Z,4.10
2022-11-22T12:45:50.363Z,4.50
2022-11-22T12:46:50.220Z,4.40
2022-11-22T12:47:50.529Z,3.70
2022-11-22T12:48:23.304Z,3.70
2022-11-22T12:48:50.220Z,4.20
2022-11-22T12:49:50.210Z,3.30
2022-11-22T12:50:50.193Z,3.70
2022-11-22T12:51:50.232Z,3.40
2022-11-22T12:52:50.298Z,4.50
2022-11-22T12:53:50.185Z,4.20
2022-11-22T12:54:50.131Z,3.40
2022-11-22T12:55:50.139Z,3.70
2022-11-22T12:56:50.165Z,3.10
2022-11-22T12:57:50.102Z,3.50
2022-11-22T12:58:50.147Z,3.20
2022-11-22T12:59:50.155Z,3.40
2022-11-22T13:00:50.179Z,3.80
2022-11-22T13:01:50.245Z,3.90
2022-11-22T13:02:54.513Z,3.60
2022-11-22T13:03:51.030Z,4.20
2022-11-22T13:04:50.050Z,3.40
2022-11-22T13:05:50.048Z,2.90